Time;durP1;ratioP1;P1;durP2;ratioP2;P2;SDS_P1;SDS_P2;PMS_P1;PMS_P2;Temp;Humidity;BMP_temperature;BMP_pressure;BME280_temperature;BME280_humidity;BME280_pressure;Samples;Min_cycle;Max_cycle;Signal;HPM_P1;HPM_P2
2023/12/13 00:00:32;;;;;;;3.70;1.33;;;;;10.80;96982.00;;;;5033105;28;20045;-64
2023/12/13 00:02:59;;;;;;;5.50;1.35;;;;;10.80;96975.00;;;;5033376;28;20056;-64
2023/12/13 00:05:26;;;;;;;4.63;1.45;;;;;10.80;96977.00;;;;5032791;28;20121;-64
2023/12/13 00:07:53;;;;;;;3.20;1.35;;;;;10.90;96979.00;;;;5033448;28;20128;-63
2023/12/13 00:10:19;;;;;;;2.33;1.00;;;;;10.90;96987.00;;;;5033345;28;20557;-64
2023/12/13 00:12:46;;;;;;;4.95;1.38;;;;;10.90;96976.00;;;;5032052;28;20050;-64
2023/12/13 00:15:12;;;;;;;4.38;1.00;;;;;10.90;96977.00;;;;5031848;28;20057;-64
2023/12/13 00:17:39;;;;;;;4.28;0.80;;;;;10.90;96973.00;;;;5032911;28;20041;-64
2023/12/13 00:20:07;;;;;;;3.47;1.30;;;;;10.90;96976.00;;;;5031808;28;20400;-64
2023/12/13 00:22:33;;;;;;;5.53;1.30;;;;;10.90;96972.00;;;;5032955;28;20107;-65
2023/12/13 00:25:00;;;;;;;7.50;1.55;;;;;11.00;96971.00;;;;5033464;28;20046;-64
2023/12/13 00:27:26;;;;;;;6.35;1.17;;;;;11.00;96964.00;;;;5034112;28;20048;-64
2023/12/13 00:29:53;;;;;;;4.18;1.10;;;;;11.00;96970.00;;;;5034284;28;20108;-64
2023/12/13 00:32:21;;;;;;;4.72;1.55;;;;;11.00;96954.00;;;;5034562;28;20129;-64
2023/12/13 00:34:48;;;;;;;5.05;1.55;;;;;11.00;96957.00;;;;5032750;28;20128;-63
2023/12/13 00:37:15;;;;;;;7.75;1.45;;;;;11.00;96953.00;;;;5034392;28;20045;-64
2023/12/13 00:39:42;;;;;;;5.43;1.42;;;;;10.90;96962.00;;;;5034898;28;20402;-63
2023/12/13 00:42:08;;;;;;;5.57;1.40;;;;;11.00;96955.00;;;;5033324;28;20084;-64
2023/12/13 00:44:36;;;;;;;6.07;1.10;;;;;10.90;96959.00;;;;5032178;28;20129;-64
2023/12/13 00:47:03;;;;;;;6.50;1.23;;;;;10.90;96952.00;;;;5035837;28;20272;-64
2023/12/13 00:49:30;;;;;;;2.97;1.00;;;;;10.90;96955.00;;;;5035440;28;20076;-64
2023/12/13 00:51:56;;;;;;;4.30;1.35;;;;;10.90;96948.00;;;;5035244;28;20095;-64
2023/12/13 00:54:23;;;;;;;2.63;1.00;;;;;10.80;96952.00;;;;5034441;28;20450;-64
2023/12/13 00:56:49;;;;;;;4.47;1.30;;;;;10.80;96947.00;;;;5034968;28;20045;-64
2023/12/13 00:59:16;;;;;;;3.72;1.20;;;;;10.70;96947.00;;;;5033812;28;20052;-64
2023/12/13 01:01:43;;;;;;;4.82;1.08;;;;;10.70;96948.00;;;;5034949;28;20044;-65
2023/12/13 01:04:11;;;;;;;5.47;1.52;;;;;10.80;96941.00;;;;5034335;28;20103;-65
2023/12/13 01:06:37;;;;;;;6.60;1.67;;;;;10.80;96942.00;;;;5034821;28;20092;-65
2023/12/13 01:09:04;;;;;;;2.25;1.10;;;;;10.80;96948.00;;;;5034672;28;20406;-63
2023/12/13 01:11:31;;;;;;;4.38;1.60;;;;;10.80;96948.00;;;;5033805;28;20132;-64
2023/12/13 01:13:58;;;;;;;6.15;1.77;;;;;10.80;96941.00;;;;5034164;28;20048;-64
2023/12/13 01:16:25;;;;;;;2.47;1.10;;;;;10.80;96940.00;;;;5034551;28;20486;-64
2023/12/13 01:18:51;;;;;;;5.00;1.40;;;;;10.80;96943.00;;;;5034705;28;20391;-65
2023/12/13 01:21:18;;;;;;;6.03;1.25;;;;;10.80;96937.00;;;;5034403;28;20414;-63
2023/12/13 01:23:45;;;;;;;4.53;1.10;;;;;10.90;96950.00;;;;5033775;28;20044;-65
2023/12/13 01:26:11;;;;;;;6.50;1.25;;;;;10.80;96949.00;;;;5034441;28;20064;-65
2023/12/13 01:28:38;;;;;;;2.08;1.13;;;;;10.80;96953.00;;;;5033451;28;20425;-65
2023/12/13 01:31:07;;;;;;;4.60;1.20;;;;;10.80;96950.00;;;;5034419;28;20129;-64
2023/12/13 01:33:34;;;;;;;4.75;1.58;;;;;10.80;96949.00;;;;5033645;28;20405;-65
2023/12/13 01:36:02;;;;;;;3.90;1.20;;;;;10.80;96945.00;;;;5032984;28;20049;-64
2023/12/13 01:38:28;;;;;;;5.30;1.70;;;;;10.80;96953.00;;;;5034213;28;20049;-65
2023/12/13 01:40:55;;;;;;;5.22;1.65;;;;;10.90;96944.00;;;;5034250;28;20129;-64
2023/12/13 01:43:40;;;;;;;5.40;1.17;;;;;10.90;96946.00;;;;5033624;28;20099;-64
2023/12/13 01:46:07;;;;;;;6.38;1.58;;;;;10.90;96950.00;;;;5034196;28;20067;-65
2023/12/13 01:48:34;;;;;;;3.92;1.20;;;;;10.90;96946.00;;;;5034095;28;20045;-65
2023/12/13 01:51:01;;;;;;;5.50;1.33;;;;;10.90;96945.00;;;;5034111;28;20259;-65
2023/12/13 01:53:28;;;;;;;4.75;1.48;;;;;10.80;96937.00;;;;5031932;28;20049;-64
2023/12/13 01:55:55;;;;;;;6.60;1.23;;;;;10.80;96947.00;;;;5033930;28;20052;-65
2023/12/13 01:58:22;;;;;;;5.07;1.20;;;;;10.80;96947.00;;;;5032083;28;20498;-64
2023/12/13 02:00:50;;;;;;;6.47;1.33;;;;;10.80;96949.00;;;;5033808;28;20052;-63
2023/12/13 02:03:19;;;;;;;4.60;1.15;;;;;10.80;96946.00;;;;5015958;28;20499;-65
2023/12/13 02:05:45;;;;;;;6.07;1.40;;;;;10.80;96940.00;;;;5032869;28;20051;-65
2023/12/13 02:08:12;;;;;;;3.92;1.50;;;;;10.80;96930.00;;;;5033665;28;20069;-64
2023/12/13 02:10:38;;;;;;;4.30;1.85;;;;;10.80;96930.00;;;;5032541;28;20075;-65
2023/12/13 02:13:05;;;;;;;4.90;1.65;;;;;10.70;96929.00;;;;5032290;28;20550;-64
2023/12/13 02:15:35;;;;;;;4.75;1.90;;;;;10.70;96929.00;;;;5032847;28;20043;-64
2023/12/13 02:18:02;;;;;;;7.72;2.38;;;;;10.70;96936.00;;;;5033387;28;20076;-65
2023/12/13 02:20:29;;;;;;;8.57;2.13;;;;;10.70;96936.00;;;;5032248;28;20041;-65
2023/12/13 02:22:56;;;;;;;6.10;2.25;;;;;10.70;96921.00;;;;5033216;28;20505;-64
2023/12/13 02:25:32;;;;;;;8.43;3.22;;;;;10.70;96924.00;;;;5032778;28;20053;-64
2023/12/13 02:28:00;;;;;;;9.35;2.60;;;;;10.70;96916.00;;;;5033310;28;20037;-65
2023/12/13 02:30:27;;;;;;;4.57;2.03;;;;;10.80;96906.00;;;;5033128;28;20553;-65
2023/12/13 02:32:54;;;;;;;8.25;2.08;;;;;10.80;96906.00;;;;5031974;28;20042;-65
2023/12/13 02:35:21;;;;;;;6.43;1.55;;;;;10.70;96904.00;;;;5032760;28;20045;-63
2023/12/13 02:37:49;;;;;;;4.03;1.85;;;;;10.70;96902.00;;;;5032898;28;20037;-64
2023/12/13 02:40:17;;;;;;;7.35;1.70;;;;;10.70;96902.00;;;;5033105;28;20510;-64
2023/12/13 02:42:44;;;;;;;4.85;1.90;;;;;10.70;96902.00;;;;5032986;28;20049;-64
2023/12/13 02:45:13;;;;;;;5.28;1.95;;;;;10.70;96907.00;;;;5032386;28;20041;-64
2023/12/13 02:47:43;;;;;;;8.50;1.63;;;;;10.70;96904.00;;;;5032764;28;20061;-64
2023/12/13 02:50:13;;;;;;;5.72;1.60;;;;;10.70;96910.00;;;;5031754;28;20065;-64
2023/12/13 02:52:40;;;;;;;7.13;1.25;;;;;10.70;96910.00;;;;5031545;28;20430;-65
2023/12/13 02:55:11;;;;;;;5.15;1.67;;;;;10.70;96900.00;;;;5032229;28;20128;-64
2023/12/13 02:57:37;;;;;;;6.25;1.65;;;;;10.70;96897.00;;;;5031558;28;20042;-65
2023/12/13 03:00:06;;;;;;;4.65;1.80;;;;;10.70;96899.00;;;;5032687;28;20045;-65
2023/12/13 03:02:33;;;;;;;11.90;2.22;;;;;10.70;96903.00;;;;5032699;28;20077;-65
2023/12/13 03:05:00;;;;;;;7.93;2.38;;;;;10.70;96902.00;;;;5030638;28;20049;-65
2023/12/13 03:07:28;;;;;;;3.58;1.20;;;;;10.80;96902.00;;;;5032393;28;20049;-64
2023/12/13 03:09:54;;;;;;;5.13;1.65;;;;;10.80;96903.00;;;;5032556;28;20045;-65
2023/12/13 03:12:21;;;;;;;4.60;1.50;;;;;10.80;96897.00;;;;5032488;28;20050;-65
2023/12/13 03:14:47;;;;;;;5.80;1.75;;;;;10.80;96895.00;;;;5030570;28;20564;-64
2023/12/13 03:17:14;;;;;;;5.85;1.38;;;;;10.80;96897.00;;;;5032286;28;20045;-64
2023/12/13 03:19:41;;;;;;;2.58;1.35;;;;;10.80;96893.00;;;;5032497;28;20136;-65
2023/12/13 03:22:08;;;;;;;6.03;1.67;;;;;10.80;96895.00;;;;5032268;28;20069;-65
2023/12/13 03:24:35;;;;;;;6.20;1.48;;;;;10.80;96893.00;;;;5031704;28;20042;-65
2023/12/13 03:27:02;;;;;;;5.47;1.40;;;;;10.70;96893.00;;;;5032424;28;20047;-64
2023/12/13 03:29:28;;;;;;;6.10;1.77;;;;;10.80;96881.00;;;;5032292;28;20052;-65
2023/12/13 03:31:55;;;;;;;6.07;1.60;;;;;10.80;96876.00;;;;5032311;28;20045;-65
2023/12/13 03:34:22;;;;;;;7.65;1.75;;;;;10.80;96876.00;;;;5031619;28;20051;-65
2023/12/13 03:36:48;;;;;;;3.55;1.60;;;;;10.80;96881.00;;;;5030768;28;20048;-65
2023/12/13 03:39:16;;;;;;;6.00;2.28;;;;;10.90;96881.00;;;;5032247;28;20133;-65
2023/12/13 03:41:42;;;;;;;7.05;1.88;;;;;10.90;96882.00;;;;5032091;28;20049;-64
2023/12/13 03:44:09;;;;;;;5.50;1.80;;;;;10.90;96879.00;;;;5031422;28;20046;-65
2023/12/13 03:46:36;;;;;;;9.02;2.13;;;;;10.90;96881.00;;;;5031975;28;20341;-65
2023/12/13 03:49:06;;;;;;;8.35;1.60;;;;;10.90;96878.00;;;;5032044;28;20057;-64
2023/12/13 03:51:33;;;;;;;9.40;1.55;;;;;10.90;96883.00;;;;5031934;28;20417;-64
2023/12/13 03:54:00;;;;;;;6.82;1.75;;;;;10.80;96870.00;;;;5031443;28;20048;-65
2023/12/13 03:56:29;;;;;;;8.32;2.03;;;;;10.80;96876.00;;;;5030598;28;20136;-64
2023/12/13 03:58:56;;;;;;;6.60;1.80;;;;;10.80;96869.00;;;;5031989;28;20048;-65
2023/12/13 04:01:23;;;;;;;6.82;1.70;;;;;10.70;96866.00;;;;5031947;28;20049;-64
2023/12/13 04:03:49;;;;;;;6.32;1.30;;;;;10.70;96869.00;;;;5031272;28;20517;-64
2023/12/13 04:06:16;;;;;;;8.98;1.80;;;;;10.70;96869.00;;;;5032026;28;20429;-64
2023/12/13 04:08:43;;;;;;;4.57;1.42;;;;;10.80;96856.00;;;;5031829;28;20046;-64
2023/12/13 04:11:09;;;;;;;5.10;1.42;;;;;10.80;96852.00;;;;5032079;28;20046;-64
2023/12/13 04:13:36;;;;;;;11.57;4.47;;;;;10.70;96854.00;;;;5031305;28;20045;-64
2023/12/13 04:16:03;;;;;;;7.93;2.90;;;;;10.80;96851.00;;;;5031755;28;20348;-64
2023/12/13 04:18:29;;;;;;;6.50;1.70;;;;;10.80;96846.00;;;;5031673;28;20516;-64
2023/12/13 04:20:56;;;;;;;6.03;1.88;;;;;10.70;96839.00;;;;5035549;28;20124;-64
2023/12/13 04:23:24;;;;;;;6.32;1.60;;;;;10.70;96838.00;;;;5035864;28;20103;-62
2023/12/13 04:25:51;;;;;;;5.78;1.77;;;;;10.70;96845.00;;;;5035643;28;20430;-64
2023/12/13 04:28:17;;;;;;;8.57;2.05;;;;;10.70;96842.00;;;;5035753;28;20042;-63
2023/12/13 04:30:44;;;;;;;7.72;2.08;;;;;10.60;96845.00;;;;5035806;28;20041;-64
2023/12/13 04:33:11;;;;;;;5.57;1.90;;;;;10.60;96844.00;;;;5035600;28;20045;-64
2023/12/13 04:35:37;;;;;;;5.15;1.80;;;;;10.70;96850.00;;;;5035263;28;20056;-64
2023/12/13 04:38:04;;;;;;;6.00;1.65;;;;;10.70;96844.00;;;;5036012;28;20033;-64
2023/12/13 04:40:31;;;;;;;3.83;1.60;;;;;10.70;96847.00;;;;5035744;28;20499;-64
2023/12/13 04:43:00;;;;;;;5.47;1.33;;;;;10.60;96837.00;;;;5035743;28;20042;-63
2023/12/13 04:45:26;;;;;;;3.88;1.40;;;;;10.60;96839.00;;;;5034710;28;20053;-64
2023/12/13 04:47:53;;;;;;;9.15;1.75;;;;;10.60;96840.00;;;;5035109;28;20038;-64
2023/12/13 04:50:19;;;;;;;6.90;2.00;;;;;10.60;96835.00;;;;5035415;28;20046;-64
2023/12/13 04:52:46;;;;;;;2.70;1.42;;;;;10.50;96825.00;;;;5034048;28;20059;-63
2023/12/13 04:55:13;;;;;;;5.90;1.20;;;;;10.60;96830.00;;;;5034857;28;20045;-64
2023/12/13 04:57:39;;;;;;;4.88;1.40;;;;;10.60;96831.00;;;;5034986;28;20045;-61
2023/12/13 05:00:07;;;;;;;4.30;1.25;;;;;10.60;96823.00;;;;5035213;28;20042;-60
2023/12/13 05:02:34;;;;;;;4.18;1.40;;;;;10.60;96818.00;;;;5034918;28;20099;-61
2023/12/13 05:05:01;;;;;;;2.60;1.30;;;;;10.70;96816.00;;;;5034579;28;20065;-62
2023/12/13 05:07:28;;;;;;;5.45;1.90;;;;;10.70;96815.00;;;;5034859;28;20609;-61
2023/12/13 05:09:55;;;;;;;7.15;1.58;;;;;10.80;96811.00;;;;5034854;28;20037;-62
2023/12/13 05:12:21;;;;;;;3.60;1.58;;;;;10.70;96806.00;;;;5034874;28;20413;-61
2023/12/13 05:14:48;;;;;;;4.80;1.33;;;;;10.80;96808.00;;;;5034234;28;20414;-61
2023/12/13 05:17:15;;;;;;;3.75;1.42;;;;;10.80;96809.00;;;;5034512;28;20053;-63
2023/12/13 05:19:41;;;;;;;5.28;1.88;;;;;10.80;96803.00;;;;5034845;28;20076;-62
2023/12/13 05:22:08;;;;;;;4.30;1.65;;;;;10.70;96812.00;;;;5034653;28;20410;-61
2023/12/13 05:24:35;;;;;;;3.92;1.60;;;;;10.70;96810.00;;;;5034108;28;20401;-61
2023/12/13 05:27:02;;;;;;;4.95;2.00;;;;;10.80;96799.00;;;;5034534;28;20120;-62
2023/12/13 05:29:28;;;;;;;3.22;1.50;;;;;10.80;96801.00;;;;5034434;28;20053;-61
2023/12/13 05:31:55;;;;;;;8.75;1.70;;;;;10.80;96800.00;;;;5033373;28;20048;-61
2023/12/13 05:34:23;;;;;;;2.88;1.75;;;;;10.80;96796.00;;;;5033822;28;20507;-63
2023/12/13 05:36:50;;;;;;;5.63;1.65;;;;;10.80;96800.00;;;;5033416;28;20045;-61
2023/12/13 05:39:16;;;;;;;3.60;2.08;;;;;10.80;96798.00;;;;5033134;28;20045;-61
2023/12/13 05:41:43;;;;;;;4.78;2.05;;;;;10.80;96798.00;;;;5034460;28;20042;-61
2023/12/13 05:44:10;;;;;;;3.97;1.70;;;;;10.80;96798.00;;;;5033629;28;20049;-62
2023/12/13 05:46:36;;;;;;;4.63;2.17;;;;;10.80;96801.00;;;;5034022;28;20076;-61
2023/12/13 05:49:06;;;;;;;8.93;3.97;;;;;10.80;96805.00;;;;5032948;28;20100;-61
2023/12/13 05:51:37;;;;;;;6.00;2.40;;;;;10.80;96802.00;;;;5032991;28;20152;-62
2023/12/13 05:54:04;;;;;;;7.78;3.33;;;;;10.80;96796.00;;;;5015751;28;20053;-61
2023/12/13 05:56:31;;;;;;;7.53;2.55;;;;;10.80;96786.00;;;;5032703;28;20417;-62
2023/12/13 05:58:58;;;;;;;5.47;3.10;;;;;10.80;96781.00;;;;5033746;28;20041;-64
2023/12/13 06:01:25;;;;;;;4.38;1.70;;;;;10.80;96784.00;;;;5033798;28;20041;-62
2023/12/13 06:03:51;;;;;;;6.68;3.53;;;;;10.80;96775.00;;;;5033774;28;20053;-62
2023/12/13 06:06:19;;;;;;;2.72;1.30;;;;;10.70;96768.00;;;;5032768;28;20139;-63
2023/12/13 06:08:45;;;;;;;4.15;1.63;;;;;10.70;96767.00;;;;5034117;28;20399;-62
2023/12/13 06:11:12;;;;;;;5.70;1.30;;;;;10.60;96779.00;;;;5033974;28;20129;-62
2023/12/13 06:13:38;;;;;;;4.70;2.08;;;;;10.60;96783.00;;;;5033289;28;20065;-62
2023/12/13 06:16:07;;;;;;;7.28;2.97;;;;;10.60;96777.00;;;;5033935;28;20048;-62
2023/12/13 06:18:34;;;;;;;8.48;4.10;;;;;10.70;96781.00;;;;5032747;28;20170;-60
2023/12/13 06:21:00;;;;;;;3.58;1.70;;;;;10.60;96778.00;;;;5033811;28;20042;-62
2023/12/13 06:23:27;;;;;;;3.88;1.38;;;;;10.50;96786.00;;;;5033148;28;20498;-59
2023/12/13 06:25:54;;;;;;;4.57;1.40;;;;;10.50;96788.00;;;;5033655;28;20558;-61
2023/12/13 06:28:22;;;;;;;6.47;1.88;;;;;10.50;96782.00;;;;5033391;28;20653;-61
2023/12/13 06:30:49;;;;;;;6.70;1.30;;;;;10.50;96784.00;;;;5033202;28;20523;-61
2023/12/13 06:33:18;;;;;;;2.60;1.38;;;;;10.40;96770.00;;;;5032124;28;20046;-63
2023/12/13 06:35:45;;;;;;;3.60;1.70;;;;;10.40;96765.00;;;;5032655;28;20038;-64
2023/12/13 06:38:12;;;;;;;5.10;1.67;;;;;10.30;96772.00;;;;5033606;28;20475;-62
2023/12/13 06:40:38;;;;;;;9.27;2.35;;;;;10.40;96766.00;;;;5032986;28;20490;-62
2023/12/13 06:43:05;;;;;;;7.28;1.95;;;;;10.40;96773.00;;;;5033057;28;20048;-63
2023/12/13 06:45:32;;;;;;;7.53;2.08;;;;;10.40;96764.00;;;;5032573;28;20083;-62
2023/12/13 06:47:59;;;;;;;4.22;1.48;;;;;10.40;96768.00;;;;5033187;28;20498;-62
2023/12/13 06:50:26;;;;;;;6.15;1.77;;;;;10.50;96769.00;;;;5032106;28;20541;-63
2023/12/13 06:52:54;;;;;;;5.68;1.70;;;;;10.50;96771.00;;;;5032840;28;20052;-62
2023/12/13 06:55:21;;;;;;;6.82;1.88;;;;;10.50;96773.00;;;;5032566;28;20045;-62
2023/12/13 06:57:48;;;;;;;6.85;1.63;;;;;10.50;96772.00;;;;5032828;28;20038;-62
2023/12/13 07:00:16;;;;;;;5.10;1.70;;;;;10.50;96774.00;;;;5031624;28;20045;-62
2023/12/13 07:02:43;;;;;;;6.00;1.50;;;;;10.60;96763.00;;;;5032963;28;20384;-61
2023/12/13 07:05:10;;;;;;;2.60;1.55;;;;;10.60;96776.00;;;;5032279;28;20551;-61
2023/12/13 07:07:37;;;;;;;3.10;1.38;;;;;10.60;96778.00;;;;5032595;28;20100;-62
2023/12/13 07:10:04;;;;;;;3.67;1.75;;;;;10.60;96771.00;;;;5031872;28;20407;-62
2023/12/13 07:12:30;;;;;;;7.75;2.20;;;;;10.70;96775.00;;;;5031578;28;20072;-63
2023/12/13 07:14:57;;;;;;;5.00;1.70;;;;;10.70;96768.00;;;;5031895;28;20049;-61
2023/12/13 07:17:24;;;;;;;5.50;1.77;;;;;10.70;96784.00;;;;5032612;28;20041;-62
2023/12/13 07:19:51;;;;;;;7.13;1.90;;;;;10.70;96776.00;;;;5032423;28;20505;-62
2023/12/13 07:22:18;;;;;;;6.97;1.75;;;;;10.70;96780.00;;;;5032507;28;20049;-62
2023/12/13 07:24:45;;;;;;;4.80;1.60;;;;;10.70;96783.00;;;;5031851;28;20474;-63
2023/12/13 07:27:12;;;;;;;6.55;1.77;;;;;10.70;96788.00;;;;5032305;28;20474;-64
2023/12/13 07:29:42;;;;;;;7.70;2.08;;;;;10.60;96789.00;;;;5032188;28;20065;-63
2023/12/13 07:32:09;;;;;;;5.07;1.70;;;;;10.60;96793.00;;;;5031089;28;20045;-64
2023/12/13 07:34:36;;;;;;;6.82;2.08;;;;;10.60;96788.00;;;;5031619;28;20073;-65
2023/12/13 07:37:04;;;;;;;11.82;2.50;;;;;10.70;96788.00;;;;5030800;28;20049;-64
2023/12/13 07:39:35;;;;;;;4.13;1.67;;;;;10.70;96791.00;;;;5030688;28;20045;-65
2023/12/13 07:42:03;;;;;;;5.90;1.95;;;;;10.70;96789.00;;;;5030754;28;20053;-64
2023/12/13 07:44:32;;;;;;;5.30;1.60;;;;;10.70;96799.00;;;;5030087;28;20092;-64
2023/12/13 07:47:00;;;;;;;5.93;1.80;;;;;10.60;96791.00;;;;5031894;28;20045;-65
2023/12/13 07:49:27;;;;;;;5.20;2.15;;;;;10.70;96786.00;;;;5031957;28;20477;-64
2023/12/13 07:51:55;;;;;;;3.50;1.80;;;;;10.60;96779.00;;;;5030796;28;20049;-64
2023/12/13 07:54:22;;;;;;;5.65;1.70;;;;;10.60;96776.00;;;;5030727;28;20556;-63
2023/12/13 07:56:53;;;;;;;6.15;1.63;;;;;10.60;96792.00;;;;5031937;28;20061;-64
2023/12/13 07:59:20;;;;;;;6.45;1.80;;;;;10.70;96785.00;;;;5031816;28;20506;-64
2023/12/13 08:01:47;;;;;;;4.28;1.67;;;;;10.70;96784.00;;;;5031904;28;20100;-62
2023/12/13 08:04:15;;;;;;;11.77;2.13;;;;;10.70;96781.00;;;;5030067;28;20053;-64
2023/12/13 08:06:41;;;;;;;6.07;1.80;;;;;10.70;96790.00;;;;5030716;28;20128;-62
2023/12/13 08:09:11;;;;;;;4.13;1.65;;;;;10.70;96788.00;;;;5031985;28;20048;-64
2023/12/13 08:11:38;;;;;;;7.18;1.70;;;;;10.70;96786.00;;;;5032004;28;20049;-64
2023/12/13 08:14:05;;;;;;;4.90;1.75;;;;;10.70;96780.00;;;;5030127;28;20140;-64
2023/12/13 08:16:32;;;;;;;8.68;2.13;;;;;10.80;96773.00;;;;5030498;28;20046;-64
2023/12/13 08:18:59;;;;;;;6.07;1.65;;;;;10.90;96778.00;;;;5031729;28;20048;-64
2023/12/13 08:21:26;;;;;;;3.80;1.73;;;;;11.00;96789.00;;;;5032495;28;20430;-62
2023/12/13 08:23:52;;;;;;;4.20;1.65;;;;;11.00;96785.00;;;;5032773;28;20038;-64
2023/12/13 08:26:20;;;;;;;6.88;1.67;;;;;11.10;96788.00;;;;5031677;28;20509;-64
2023/12/13 08:28:46;;;;;;;5.88;2.45;;;;;11.10;96789.00;;;;5031652;28;20063;-64
2023/12/13 08:31:15;;;;;;;6.78;2.03;;;;;11.10;96793.00;;;;5031729;28;20096;-64
2023/12/13 08:33:52;;;;;;;6.70;2.20;;;;;11.10;96786.00;;;;5031232;28;20435;-65
2023/12/13 08:36:19;;;;;;;7.82;2.03;;;;;11.20;96787.00;;;;5031613;28;20054;-64
2023/12/13 08:38:45;;;;;;;6.53;1.85;;;;;11.20;96780.00;;;;5030631;28;20045;-64
2023/12/13 08:41:14;;;;;;;3.65;1.42;;;;;11.30;96790.00;;;;5031649;28;20045;-64
2023/12/13 08:43:40;;;;;;;8.90;2.15;;;;;11.30;96784.00;;;;5030983;28;20565;-63
2023/12/13 08:46:07;;;;;;;7.28;1.77;;;;;11.30;96793.00;;;;5031736;28;20575;-64
2023/12/13 08:48:34;;;;;;;5.25;1.70;;;;;11.30;96785.00;;;;5031611;28;20035;-64
2023/12/13 08:51:02;;;;;;;8.02;2.05;;;;;11.40;96781.00;;;;5030387;28;20387;-63
2023/12/13 08:53:29;;;;;;;6.55;1.52;;;;;11.50;96785.00;;;;5030828;28;20498;-62
2023/12/13 08:55:55;;;;;;;5.72;1.98;;;;;11.60;96789.00;;;;5031424;28;20042;-66
2023/12/13 08:58:22;;;;;;;7.32;2.03;;;;;11.60;96784.00;;;;5031300;28;20405;-64
2023/12/13 09:00:49;;;;;;;6.45;2.10;;;;;11.60;96797.00;;;;5031561;28;20045;-62
2023/12/13 09:03:16;;;;;;;6.18;1.80;;;;;11.60;96785.00;;;;5030422;28;20042;-63
2023/12/13 09:05:42;;;;;;;4.93;1.70;;;;;11.50;96793.00;;;;5031297;28;20041;-64
2023/12/13 09:08:09;;;;;;;4.40;1.98;;;;;11.50;96801.00;;;;5034957;28;20080;-61
2023/12/13 09:10:35;;;;;;;7.40;1.70;;;;;11.50;96791.00;;;;5034874;28;20054;-62
2023/12/13 09:13:02;;;;;;;4.95;1.77;;;;;11.40;96783.00;;;;5033613;28;20056;-61
2023/12/13 09:15:29;;;;;;;5.57;1.55;;;;;11.40;96797.00;;;;5032967;28;20136;-61
2023/12/13 09:17:56;;;;;;;7.22;1.88;;;;;11.40;96801.00;;;;5034573;28;20087;-62
2023/12/13 09:20:23;;;;;;;3.88;1.75;;;;;11.40;96788.00;;;;5035503;28;20128;-61
2023/12/13 09:22:50;;;;;;;6.75;1.55;;;;;11.50;96794.00;;;;5034759;28;20053;-62
2023/12/13 09:25:16;;;;;;;4.68;1.30;;;;;11.60;96792.00;;;;5033062;28;20053;-64
2023/12/13 09:27:44;;;;;;;3.00;1.70;;;;;11.80;96792.00;;;;5034549;28;20103;-64
2023/12/13 09:30:11;;;;;;;5.93;1.70;;;;;11.90;96797.00;;;;5034716;28;20049;-62
2023/12/13 09:32:39;;;;;;;3.55;1.30;;;;;11.80;96797.00;;;;5034513;28;20055;-62
2023/12/13 09:35:06;;;;;;;3.65;1.60;;;;;11.80;96799.00;;;;5033960;28;20056;-62
2023/12/13 09:37:32;;;;;;;3.42;1.15;;;;;11.80;96798.00;;;;5034303;28;20048;-62
2023/12/13 09:40:00;;;;;;;4.65;1.05;;;;;11.80;96804.00;;;;5034256;28;20073;-61
2023/12/13 09:42:30;;;;;;;6.05;1.52;;;;;11.70;96813.00;;;;5034349;28;20120;-61
2023/12/13 09:44:58;;;;;;;6.47;1.77;;;;;11.60;96812.00;;;;5033667;28;20486;-62
2023/12/13 09:47:26;;;;;;;3.20;1.17;;;;;11.60;96807.00;;;;5034192;28;20043;-63
2023/12/13 09:49:53;;;;;;;1.75;0.80;;;;;11.50;96808.00;;;;5034438;28;20430;-62
2023/12/13 09:52:20;;;;;;;2.08;1.00;;;;;11.60;96810.00;;;;5034170;28;20041;-62
2023/12/13 09:54:49;;;;;;;2.17;1.00;;;;;11.60;96818.00;;;;5033574;28;20045;-62
2023/12/13 09:57:16;;;;;;;3.55;0.98;;;;;11.50;96820.00;;;;5034048;28;20116;-62
2023/12/13 09:59:45;;;;;;;2.30;0.98;;;;;11.40;96828.00;;;;5032835;28;20118;-64
2023/12/13 10:02:14;;;;;;;3.83;1.20;;;;;11.40;96826.00;;;;5033999;28;20474;-64
2023/12/13 10:04:43;;;;;;;5.65;1.77;;;;;11.50;96824.00;;;;5033373;28;20157;-64
2023/12/13 10:07:11;;;;;;;4.43;1.15;;;;;11.60;96820.00;;;;5034448;28;20081;-64
2023/12/13 10:09:38;;;;;;;3.83;1.10;;;;;11.60;96827.00;;;;5035023;28;20056;-63
2023/12/13 10:12:06;;;;;;;3.33;1.17;;;;;11.50;96824.00;;;;5035827;28;20532;-64
2023/12/13 10:14:36;;;;;;;3.60;1.15;;;;;11.60;96830.00;;;;5033108;28;20041;-62
2023/12/13 10:17:03;;;;;;;4.40;1.30;;;;;11.70;96825.00;;;;5034749;28;20105;-64
2023/12/13 10:19:45;;;;;;;4.07;1.42;;;;;11.60;96824.00;;;;5034905;28;20041;-64
2023/12/13 10:22:12;;;;;;;2.67;1.20;;;;;11.70;96816.00;;;;5035243;28;20052;-63
2023/12/13 10:24:39;;;;;;;2.35;1.55;;;;;11.80;96820.00;;;;5034758;28;20072;-64
2023/12/13 10:27:06;;;;;;;4.13;1.30;;;;;12.00;96804.00;;;;5035342;28;20099;-64
2023/12/13 10:29:33;;;;;;;6.20;1.50;;;;;12.00;96811.00;;;;5035238;28;20046;-64
2023/12/13 10:32:00;;;;;;;8.23;3.00;;;;;12.10;96812.00;;;;5034030;28;20120;-62
2023/12/13 10:34:28;;;;;;;13.15;8.77;;;;;12.20;96801.00;;;;5033564;28;20041;-63
2023/12/13 10:36:57;;;;;;;9.20;2.80;;;;;12.20;96810.00;;;;5033336;28;20052;-63
2023/12/13 10:39:24;;;;;;;5.85;2.95;;;;;12.20;96801.00;;;;5032394;28;20042;-63
2023/12/13 10:41:56;;;;;;;6.07;2.50;;;;;12.40;96796.00;;;;5033970;28;20049;-63
2023/12/13 10:44:23;;;;;;;5.15;1.98;;;;;12.50;96796.00;;;;5033167;28;20116;-63
2023/12/13 10:46:58;;;;;;;5.00;1.95;;;;;12.60;96792.00;;;;5033624;28;20045;-63
2023/12/13 10:49:26;;;;;;;9.10;2.30;;;;;12.80;96793.00;;;;5033530;28;20045;-63
2023/12/13 10:51:53;;;;;;;9.38;2.45;;;;;13.00;96796.00;;;;5033279;28;20046;-64
2023/12/13 10:54:21;;;;;;;5.20;1.70;;;;;13.00;96798.00;;;;5032586;28;20293;-64
2023/12/13 10:56:48;;;;;;;6.18;1.85;;;;;13.00;96788.00;;;;5033509;28;20088;-64
2023/12/13 10:59:15;;;;;;;5.75;2.05;;;;;13.10;96798.00;;;;5032977;28;20084;-64
2023/12/13 11:01:45;;;;;;;6.28;1.90;;;;;13.10;96799.00;;;;5032723;28;20433;-61
2023/12/13 11:04:13;;;;;;;4.65;1.83;;;;;12.90;96792.00;;;;5032511;28;20056;-61
2023/12/13 11:06:45;;;;;;;9.85;2.65;;;;;12.90;96790.00;;;;5032753;28;20046;-61
2023/12/13 11:09:14;;;;;;;5.47;1.90;;;;;12.80;96783.00;;;;5032787;28;20041;-61
2023/12/13 11:11:44;;;;;;;6.85;2.47;;;;;12.80;96784.00;;;;5033689;28;20048;-61
2023/12/13 11:14:11;;;;;;;6.53;3.30;;;;;12.80;96791.00;;;;5032255;28;20048;-62
2023/12/13 11:16:40;;;;;;;6.03;1.67;;;;;12.90;96794.00;;;;5031410;28;20042;-61
2023/12/13 11:19:11;;;;;;;4.75;1.40;;;;;12.70;96797.00;;;;5032430;28;20045;-64
2023/12/13 11:21:39;;;;;;;6.45;1.90;;;;;12.50;96795.00;;;;5032294;28;20410;-62
2023/12/13 11:24:10;;;;;;;7.45;2.78;;;;;12.50;96784.00;;;;5031501;28;20076;-61
2023/12/13 11:26:49;;;;;;;4.03;1.85;;;;;12.50;96782.00;;;;5032357;28;20463;-64
2023/12/13 11:29:33;;;;;;;7.07;2.60;;;;;12.40;96794.00;;;;5031589;28;20494;-62
2023/12/13 11:32:02;;;;;;;7.80;1.92;;;;;12.30;96788.00;;;;5031069;28;20057;-61
2023/12/13 11:34:39;;;;;;;7.43;1.58;;;;;12.50;96792.00;;;;5032059;28;20037;-61
2023/12/13 11:37:06;;;;;;;7.82;2.20;;;;;12.40;96789.00;;;;5032576;28;20475;-62
2023/12/13 11:39:35;;;;;;;4.47;2.15;;;;;12.50;96788.00;;;;5032222;28;20065;-59
2023/12/13 11:42:09;;;;;;;4.35;2.13;;;;;12.60;96794.00;;;;5032749;28;20422;-63
2023/12/13 11:44:37;;;;;;;5.38;1.92;;;;;12.60;96792.00;;;;5031772;28;20059;-60
2023/12/13 11:47:09;;;;;;;6.05;1.88;;;;;12.70;96781.00;;;;5032033;28;20656;-60
2023/12/13 11:49:37;;;;;;;4.95;1.30;;;;;12.80;96800.00;;;;5032178;28;20399;-64
2023/12/13 11:52:04;;;;;;;5.40;1.60;;;;;12.80;96784.00;;;;5031955;28;20045;-64
2023/12/13 11:54:32;;;;;;;7.78;2.72;;;;;12.80;96785.00;;;;5031297;28;20050;-64
2023/12/13 11:56:59;;;;;;;6.47;1.95;;;;;13.00;96777.00;;;;5030695;28;20077;-64
2023/12/13 11:59:26;;;;;;;4.72;1.92;;;;;13.20;96775.00;;;;5031901;28;20045;-64
2023/12/13 12:01:52;;;;;;;5.05;1.67;;;;;13.40;96781.00;;;;5031942;28;20041;-64
2023/12/13 12:04:19;;;;;;;4.93;2.10;;;;;13.60;96781.00;;;;5031215;28;20116;-64
2023/12/13 12:06:51;;;;;;;5.53;1.40;;;;;13.50;96787.00;;;;5031408;28;20121;-63
2023/12/13 12:09:23;;;;;;;4.00;1.73;;;;;13.40;96778.00;;;;5030517;28;20049;-64
2023/12/13 12:11:54;;;;;;;7.13;1.20;;;;;13.40;96777.00;;;;5031922;28;20042;-64
2023/12/13 12:14:30;;;;;;;5.13;1.20;;;;;13.40;96782.00;;;;5031322;28;20509;-63
2023/12/13 12:16:59;;;;;;;5.25;1.27;;;;;13.30;96777.00;;;;5031670;28;20045;-64
2023/12/13 12:19:29;;;;;;;2.15;1.15;;;;;13.30;96773.00;;;;5032387;28;20038;-64